Minneapolis (MSP/KMSP)

Information

Location
Minneapolis, MN
Local Time
14:43 / 2:43 pm
GMT Time
19:43 / 7:43 pm
Gates
B10
No FAA reported delays
METAR KMSP 281853Z 35010G14KT 10SM BKN250 09/M03 A2994 RMK AO2 SLP144 T00891028
TAF KMSP 281721Z 2818/2924 35009KT P6SM BKN200 FM290800 02007KT P6SM SCT200 FM291600 05010KT P6SM BKN200